createdAt,value
2022-12-23T00:09:56.253Z,9.23
2022-12-23T00:15:06.813Z,9.70
2022-12-23T00:20:12.354Z,9.52
2022-12-23T00:25:15.896Z,9.10
2022-12-23T00:30:20.847Z,8.77
2022-12-23T00:40:44.454Z,9.57
2022-12-23T00:45:49.536Z,9.90
2022-12-23T00:50:53.801Z,9.45
2022-12-23T00:55:57.304Z,9.90
2022-12-23T01:01:19.328Z,12.10
2022-12-23T01:06:22.715Z,10.90
2022-12-23T01:11:26.323Z,10.48
2022-12-23T01:16:31.108Z,11.65
2022-12-23T01:26:37.889Z,12.20
2022-12-23T01:31:42.674Z,12.63
2022-12-23T01:42:06.891Z,12.13
2022-12-23T01:47:14.667Z,12.88
2022-12-23T01:52:18.617Z,13.55
2022-12-23T01:57:22.743Z,13.82
2022-12-23T02:02:46.400Z,13.70
2022-12-23T02:08:07.514Z,13.32
2022-12-23T02:13:17.613Z,12.98
2022-12-23T02:18:56.602Z,14.68
2022-12-23T02:24:42.648Z,12.52
2022-12-23T02:30:20.073Z,13.85
2022-12-23T02:35:30.907Z,14.02
2022-12-23T02:40:40.838Z,12.45
2022-12-23T02:45:49.273Z,12.55
2022-12-23T02:50:56.598Z,14.55
2022-12-23T02:56:02.315Z,14.88
2022-12-23T03:01:08.504Z,16.08
2022-12-23T03:06:22.376Z,14.23
2022-12-23T03:11:40.380Z,16.15
2022-12-23T03:16:53.586Z,16.40
2022-12-23T03:22:07.158Z,14.38
2022-12-23T03:27:17.514Z,16.52
2022-12-23T03:32:23.754Z,15.18
2022-12-23T03:37:31.579Z,14.73
2022-12-23T03:42:38.269Z,16.17
2022-12-23T03:47:45.893Z,17.05
2022-12-23T03:52:57.018Z,16.15
2022-12-23T03:58:03.805Z,14.73
2022-12-23T04:03:16.920Z,14.65
2022-12-23T04:08:25.688Z,14.55
2022-12-23T04:13:29.606Z,15.95
2022-12-23T04:18:32.980Z,15.70
2022-12-23T04:23:38.135Z,15.40
2022-12-23T04:28:41.613Z,17.83
2022-12-23T04:33:45.199Z,17.63
2022-12-23T04:38:50.113Z,18.05
2022-12-23T04:48:57.146Z,18.17
2022-12-23T04:54:01.889Z,19.13
2022-12-23T04:59:05.350Z,20.48
2022-12-23T05:04:08.649Z,18.13
2022-12-23T05:09:13.585Z,19.77
2022-12-23T05:19:19.905Z,18.58
2022-12-23T05:24:24.724Z,19.52
2022-12-23T05:34:31.254Z,19.50
2022-12-23T05:39:36.176Z,18.58
2022-12-23T05:49:42.663Z,15.43
2022-12-23T05:54:47.648Z,16.30
2022-12-23T06:04:54.533Z,15.70
2022-12-23T06:09:59.588Z,14.38
2022-12-23T06:15:03.213Z,14.40
2022-12-23T06:20:11.206Z,13.40
2022-12-23T06:25:21.404Z,13.98
2022-12-23T06:30:24.793Z,14.80
2022-12-23T06:35:28.271Z,14.57
2022-12-23T06:40:32.987Z,15.48
2022-12-23T06:45:36.573Z,15.48
2022-12-23T06:50:39.994Z,15.68
2022-12-23T06:55:45.011Z,16.52
2022-12-23T07:00:48.527Z,14.80
2022-12-23T07:05:52.343Z,15.40
2022-12-23T07:11:00.839Z,14.20
2022-12-23T07:16:08.212Z,14.32
2022-12-23T07:21:19.978Z,13.95
2022-12-23T07:26:29.515Z,15.20
2022-12-23T07:31:33.079Z,14.70
2022-12-23T07:36:36.859Z,13.93
2022-12-23T07:41:41.706Z,16.08
2022-12-23T07:51:48.402Z,14.70
2022-12-23T07:56:53.307Z,14.98
2022-12-23T08:07:00.183Z,16.05
2022-12-23T08:12:05.535Z,15.75
2022-12-23T08:17:08.998Z,13.75
2022-12-23T08:22:12.558Z,15.68
2022-12-23T08:27:17.490Z,14.75
2022-12-23T08:37:23.995Z,16.17
2022-12-23T08:42:28.736Z,16.95
2022-12-23T08:47:32.331Z,16.48
2022-12-23T08:52:35.749Z,17.58
2022-12-23T08:57:41.064Z,16.93
2022-12-23T09:02:44.737Z,15.85
2022-12-23T09:07:48.186Z,17.95
2022-12-23T09:12:55.201Z,17.58
2022-12-23T09:18:00.272Z,16.20
2022-12-23T09:23:04.050Z,16.75
2022-12-23T09:28:09.392Z,17.45
2022-12-23T09:33:13.128Z,14.43
2022-12-23T09:38:17.193Z,15.07
2022-12-23T09:43:29.141Z,13.83
2022-12-23T09:48:37.147Z,14.63
2022-12-23T09:53:50.857Z,14.82
2022-12-23T09:59:06.289Z,13.98
2022-12-23T10:04:29.905Z,14.60
2022-12-23T10:09:37.395Z,15.10
2022-12-23T10:14:42.905Z,15.30
2022-12-23T10:19:49.767Z,14.45
2022-12-23T10:24:55.268Z,16.92
2022-12-23T10:30:14.246Z,18.13
2022-12-23T10:35:43.655Z,16.75
2022-12-23T10:40:59.450Z,17.90
2022-12-23T10:46:19.283Z,14.10
2022-12-23T10:51:28.470Z,14.65
2022-12-23T10:56:32.488Z,14.93
2022-12-23T11:01:37.435Z,17.23
2022-12-23T11:06:44.910Z,14.27
2022-12-23T11:11:55.287Z,13.63
2022-12-23T11:17:00.506Z,13.75
2022-12-23T11:22:04.049Z,12.52
2022-12-23T11:27:13.187Z,10.85
2022-12-23T11:32:21.937Z,9.85
2022-12-23T11:37:31.569Z,9.80
2022-12-23T11:42:36.446Z,10.15
2022-12-23T11:47:43.320Z,9.98
2022-12-23T11:52:53.294Z,9.45
2022-12-23T11:57:57.936Z,9.23
2022-12-23T12:03:04.875Z,10.40
2022-12-23T12:08:12.803Z,10.38
2022-12-23T12:13:27.342Z,11.00
2022-12-23T12:18:33.606Z,9.40
2022-12-23T12:23:44.729Z,9.60
2022-12-23T12:28:55.458Z,9.52
2022-12-23T12:34:06.330Z,10.15
2022-12-23T12:39:17.348Z,10.82
2022-12-23T12:44:33.342Z,10.25
2022-12-23T12:49:44.783Z,11.70
2022-12-23T12:54:54.445Z,12.00
2022-12-23T13:00:05.986Z,12.18
2022-12-23T13:05:32.441Z,11.80
2022-12-23T13:10:43.740Z,12.27
2022-12-23T13:15:52.271Z,13.40
2022-12-23T13:21:03.865Z,13.10
2022-12-23T13:26:19.249Z,13.43
2022-12-23T13:31:34.760Z,12.88
2022-12-23T13:36:50.305Z,11.93
2022-12-23T13:42:04.609Z,11.85
2022-12-23T13:52:23.739Z,13.80
2022-12-23T13:57:46.053Z,12.90
2022-12-23T14:02:54.041Z,12.48
2022-12-23T14:07:59.879Z,13.13
2022-12-23T14:13:06.435Z,12.98
2022-12-23T14:18:22.092Z,13.68
2022-12-23T14:23:43.139Z,12.43
2022-12-23T14:29:06.237Z,11.80
2022-12-23T14:34:29.633Z,11.25
2022-12-23T14:39:34.919Z,10.77
2022-12-23T14:44:47.405Z,11.02
2022-12-23T14:49:51.572Z,10.75
2022-12-23T14:55:28.482Z,10.98
2022-12-23T15:00:20.057Z,9.95
2022-12-23T15:05:24.598Z,9.60
2022-12-23T15:10:39.378Z,9.32
2022-12-23T15:16:00.723Z,8.10
2022-12-23T15:21:13.638Z,8.95
2022-12-23T15:26:18.648Z,9.02
2022-12-23T15:31:28.226Z,7.45
2022-12-23T15:36:37.133Z,7.72
2022-12-23T15:41:46.654Z,7.80
2022-12-23T15:46:50.800Z,7.65
2022-12-23T15:52:19.946Z,7.00
2022-12-23T15:57:25.569Z,6.13
2022-12-23T16:08:12.154Z,6.50
2022-12-23T16:13:20.281Z,7.13
2022-12-23T16:18:25.738Z,7.25
2022-12-23T16:23:31.247Z,6.72
2022-12-23T16:28:39.960Z,7.40
2022-12-23T16:33:45.447Z,7.07
2022-12-23T16:38:51.163Z,7.55
2022-12-23T16:43:56.018Z,7.97
2022-12-23T16:54:03.619Z,7.78
2022-12-23T16:59:08.480Z,8.60
2022-12-23T17:09:15.238Z,9.45
2022-12-23T17:14:23.001Z,8.57
2022-12-23T17:19:29.361Z,9.23
2022-12-23T17:24:33.183Z,8.85
2022-12-23T17:29:38.067Z,9.45
2022-12-23T17:39:46.097Z,8.93
2022-12-23T17:44:51.051Z,9.35
2022-12-23T17:54:57.836Z,8.73
2022-12-23T18:00:02.662Z,9.00
2022-12-23T18:05:21.208Z,8.55
2022-12-23T18:10:27.998Z,8.20
2022-12-23T18:15:36.610Z,8.23
2022-12-23T18:20:42.221Z,8.20
2022-12-23T18:25:45.800Z,7.55
2022-12-23T18:30:51.917Z,7.55
2022-12-23T18:35:55.315Z,7.70
2022-12-23T18:40:58.827Z,7.03
2022-12-23T18:46:03.820Z,7.43
2022-12-23T18:56:14.275Z,6.90
2022-12-23T19:01:20.323Z,7.05
2022-12-23T19:06:23.839Z,7.80
2022-12-23T19:11:27.166Z,7.53
2022-12-23T19:16:32.246Z,7.50
2022-12-23T19:26:39.323Z,6.75
2022-12-23T19:31:44.424Z,6.20
2022-12-23T19:36:48.316Z,6.25
2022-12-23T19:41:51.960Z,6.38
2022-12-23T19:46:56.843Z,5.95
2022-12-23T19:57:03.381Z,5.72
2022-12-23T20:02:08.345Z,5.65
2022-12-23T20:07:11.995Z,6.63
2022-12-23T20:12:15.432Z,5.68
2022-12-23T20:17:20.408Z,6.22
2022-12-23T20:22:23.861Z,5.40
2022-12-23T20:27:28.217Z,5.18
2022-12-23T20:32:33.248Z,5.53
2022-12-23T20:37:36.671Z,6.10
2022-12-23T20:42:40.128Z,5.50
2022-12-23T20:47:45.004Z,5.65
2022-12-23T20:57:51.935Z,6.45
2022-12-23T21:02:56.732Z,6.22
2022-12-23T21:13:03.667Z,5.63
2022-12-23T21:18:08.413Z,6.20
2022-12-23T21:23:11.897Z,6.55
2022-12-23T21:28:15.211Z,6.35
2022-12-23T21:33:20.096Z,6.05
2022-12-23T21:38:23.523Z,6.22
2022-12-23T21:43:26.821Z,5.93
2022-12-23T21:48:33.303Z,6.15
2022-12-23T21:53:37.476Z,5.15
2022-12-23T21:58:41.205Z,6.13
2022-12-23T22:03:46.991Z,6.50
2022-12-23T22:08:51.425Z,6.45
2022-12-23T22:13:56.509Z,6.70
2022-12-23T22:19:02.708Z,6.07
2022-12-23T22:24:06.827Z,6.45
2022-12-23T22:29:12.290Z,5.63
2022-12-23T22:34:19.026Z,6.15
2022-12-23T22:39:23.062Z,5.55
2022-12-23T22:44:26.533Z,5.40
2022-12-23T22:49:31.469Z,6.20
2022-12-23T22:59:38.321Z,5.47
2022-12-23T23:04:43.199Z,5.40
2022-12-23T23:14:55.750Z,5.40
2022-12-23T23:20:00.518Z,4.47
2022-12-23T23:25:03.880Z,4.90
2022-12-23T23:30:08.346Z,5.20
2022-12-23T23:35:13.270Z,4.97
2022-12-23T23:45:20.002Z,5.25
2022-12-23T23:50:24.878Z,5.57
